createdAt,value
2023-05-17T00:01:56.670Z,90987.19
2023-05-17T00:04:23.435Z,90990.34
2023-05-17T00:06:50.132Z,90997.69
2023-05-17T00:09:16.883Z,90991.41
2023-05-17T00:11:43.618Z,90993.63
2023-05-17T00:14:11.485Z,90992.31
2023-05-17T00:16:38.824Z,91006.81
2023-05-17T00:19:05.638Z,90998.69
2023-05-17T00:21:32.421Z,90991.88
2023-05-17T00:23:59.144Z,91005.94
2023-05-17T00:26:25.797Z,91013.97
2023-05-17T00:28:52.541Z,91020.06
2023-05-17T00:31:19.193Z,91022.13
2023-05-17T00:33:47.689Z,91027.00
2023-05-17T00:36:14.379Z,91023.28
2023-05-17T00:38:41.065Z,91028.00
2023-05-17T00:41:10.075Z,91025.41
2023-05-17T00:43:36.807Z,91028.81
2023-05-17T00:46:03.489Z,91026.50
2023-05-17T00:48:30.245Z,91031.50
2023-05-17T00:50:56.965Z,91028.94
2023-05-17T00:53:23.653Z,91017.91
2023-05-17T00:55:50.622Z,91027.28
2023-05-17T00:58:17.270Z,91027.53
2023-05-17T01:00:43.988Z,91032.53
2023-05-17T01:03:10.811Z,91023.47
2023-05-17T01:05:37.494Z,91032.69
2023-05-17T01:08:04.328Z,91023.41
2023-05-17T01:10:58.475Z,91016.44
2023-05-17T01:13:37.123Z,91015.91
2023-05-17T01:16:21.449Z,91011.06
2023-05-17T01:19:03.494Z,91006.38
2023-05-17T01:21:44.210Z,91004.09
2023-05-17T01:24:26.335Z,91006.50
2023-05-17T01:26:53.436Z,91011.88
2023-05-17T01:29:22.361Z,91017.72
2023-05-17T01:31:49.485Z,91014.09
2023-05-17T01:34:27.907Z,91020.00
2023-05-17T01:36:54.834Z,91021.53
2023-05-17T01:39:21.600Z,91020.00
2023-05-17T01:42:05.385Z,91020.34
2023-05-17T01:44:37.141Z,91017.59
2023-05-17T01:47:12.864Z,91006.84
2023-05-17T01:49:40.105Z,91006.16
2023-05-17T01:52:19.149Z,91011.44
2023-05-17T01:54:45.839Z,91010.56
2023-05-17T01:57:12.586Z,91008.59
2023-05-17T01:59:39.411Z,91010.69
2023-05-17T02:02:07.432Z,91009.91
2023-05-17T02:04:34.192Z,91008.16
2023-05-17T02:07:00.934Z,91006.72
2023-05-17T02:09:27.591Z,91009.47
2023-05-17T02:11:54.369Z,91001.88
2023-05-17T02:14:21.051Z,91001.88
2023-05-17T02:16:47.719Z,91000.59
2023-05-17T02:19:15.260Z,90991.44
2023-05-17T02:21:42.005Z,91004.53
2023-05-17T02:24:08.730Z,90997.16
2023-05-17T02:26:35.523Z,90997.38
2023-05-17T02:29:02.289Z,90999.38
2023-05-17T02:31:29.050Z,91003.53
2023-05-17T02:33:55.938Z,91000.47
2023-05-17T02:36:22.680Z,91014.53
2023-05-17T02:38:49.421Z,91015.41
2023-05-17T02:41:16.122Z,91015.84
2023-05-17T02:43:42.931Z,91014.31
2023-05-17T02:46:09.637Z,91037.78
2023-05-17T02:48:36.413Z,91039.56
2023-05-17T02:51:03.221Z,91032.09
2023-05-17T02:53:30.072Z,91030.88
2023-05-17T02:55:58.173Z,91044.06
2023-05-17T02:58:25.531Z,91041.84
2023-05-17T03:00:52.268Z,91037.22
2023-05-17T03:03:19.051Z,91035.56
2023-05-17T03:05:45.953Z,91040.41
2023-05-17T03:08:12.568Z,91045.47
2023-05-17T03:10:39.233Z,91047.34
2023-05-17T03:13:06.060Z,91047.41
2023-05-17T03:15:32.769Z,91041.56
2023-05-17T03:17:59.796Z,91033.00
2023-05-17T03:20:26.468Z,91045.63
2023-05-17T03:22:53.146Z,91045.59
2023-05-17T03:25:19.830Z,91042.09
2023-05-17T03:27:46.622Z,91049.50
2023-05-17T03:30:13.474Z,91048.13
2023-05-17T03:32:40.553Z,91057.25
2023-05-17T03:35:08.375Z,91055.19
2023-05-17T03:37:35.064Z,91053.84
2023-05-17T03:40:01.735Z,91070.13
2023-05-17T03:42:28.378Z,91071.81
2023-05-17T03:44:55.028Z,91069.13
2023-05-17T03:47:24.096Z,91076.84
2023-05-17T03:49:51.467Z,91061.53
2023-05-17T03:52:18.212Z,91069.47
2023-05-17T03:54:46.315Z,91076.41
2023-05-17T03:57:14.921Z,91081.88
2023-05-17T03:59:41.589Z,91079.25
2023-05-17T04:02:08.345Z,91074.59
2023-05-17T04:04:34.998Z,91068.03
2023-05-17T04:07:02.289Z,91077.16
2023-05-17T04:09:31.138Z,91080.00
2023-05-17T04:11:57.838Z,91072.97
2023-05-17T04:14:24.462Z,91067.59
2023-05-17T04:16:51.399Z,91061.38
2023-05-17T04:19:18.328Z,91077.53
2023-05-17T04:21:45.911Z,91082.13
2023-05-17T04:24:12.532Z,91085.66
2023-05-17T04:26:39.949Z,91081.03
2023-05-17T04:29:06.941Z,91079.72
2023-05-17T04:31:34.342Z,91082.44
2023-05-17T04:34:01.206Z,91090.94
2023-05-17T04:36:27.994Z,91077.13
2023-05-17T04:38:54.820Z,91074.44
2023-05-17T04:41:21.496Z,91075.53
2023-05-17T04:43:48.294Z,91072.44
2023-05-17T04:46:15.077Z,91074.59
2023-05-17T04:48:42.156Z,91065.44
2023-05-17T04:51:09.015Z,91077.72
2023-05-17T04:53:35.730Z,91071.28
2023-05-17T04:56:02.475Z,91066.53
2023-05-17T04:58:29.090Z,91067.00
2023-05-17T05:00:56.400Z,91067.22
2023-05-17T05:03:23.232Z,91068.56
2023-05-17T05:05:49.972Z,91066.00
2023-05-17T05:08:17.726Z,91068.31
2023-05-17T05:10:44.491Z,91066.34
2023-05-17T05:13:11.575Z,91068.53
2023-05-17T05:15:38.305Z,91061.41
2023-05-17T05:18:05.153Z,91072.50
2023-05-17T05:20:31.979Z,91068.66
2023-05-17T05:22:59.165Z,91067.44
2023-05-17T05:25:25.904Z,91073.13
2023-05-17T05:27:52.686Z,91067.00
2023-05-17T05:30:22.518Z,91073.94
2023-05-17T05:32:50.549Z,91074.69
2023-05-17T05:35:17.502Z,91073.69
2023-05-17T05:37:44.470Z,91074.94
2023-05-17T05:40:11.684Z,91078.03
2023-05-17T05:42:38.465Z,91080.66
2023-05-17T05:45:05.606Z,91086.22
2023-05-17T05:47:32.403Z,91089.75
2023-05-17T05:49:59.173Z,91088.00
2023-05-17T05:52:25.927Z,91094.16
2023-05-17T05:54:52.616Z,91090.97
2023-05-17T05:57:19.472Z,91101.69
2023-05-17T05:59:46.168Z,91104.28
2023-05-17T06:02:13.215Z,91107.56
2023-05-17T06:04:45.029Z,91105.06
2023-05-17T06:07:13.577Z,91101.28
2023-05-17T06:09:40.463Z,91102.25
2023-05-17T06:12:07.285Z,91103.91
2023-05-17T06:14:34.053Z,91101.09
2023-05-17T06:17:00.713Z,91103.03
2023-05-17T06:19:27.502Z,91107.41
2023-05-17T06:21:54.290Z,91106.31
2023-05-17T06:24:20.964Z,91105.03
2023-05-17T06:26:48.558Z,91096.44
2023-05-17T06:29:15.691Z,91102.50
2023-05-17T06:31:42.425Z,91100.84
2023-05-17T06:34:09.250Z,91098.34
2023-05-17T06:36:37.604Z,91094.25
2023-05-17T06:39:05.441Z,91092.63
2023-05-17T06:41:32.186Z,91087.34
2023-05-17T06:43:58.812Z,91094.16
2023-05-17T06:46:25.650Z,91096.91
2023-05-17T06:48:52.488Z,91097.81
2023-05-17T06:51:19.283Z,91100.97
2023-05-17T06:53:46.075Z,91103.50
2023-05-17T06:56:12.846Z,91105.28
2023-05-17T06:58:39.560Z,91113.75
2023-05-17T07:01:06.258Z,91107.03
2023-05-17T07:03:33.057Z,91111.28
2023-05-17T07:05:59.982Z,91117.81
2023-05-17T07:08:27.555Z,91117.91
2023-05-17T07:10:54.339Z,91119.72
2023-05-17T07:13:21.175Z,91112.72
2023-05-17T07:15:48.026Z,91112.34
2023-05-17T07:18:15.306Z,91117.41
2023-05-17T07:20:42.166Z,91122.06
2023-05-17T07:23:08.927Z,91124.00
2023-05-17T07:25:38.830Z,91111.44
2023-05-17T07:28:05.793Z,91117.31
2023-05-17T07:30:32.462Z,91124.00
2023-05-17T07:32:59.273Z,91122.59
2023-05-17T07:35:26.107Z,91117.31
2023-05-17T07:37:52.810Z,91115.97
2023-05-17T07:40:19.457Z,91111.16
2023-05-17T07:42:46.179Z,91118.66
2023-05-17T07:45:12.891Z,91119.97
2023-05-17T07:47:39.811Z,91116.97
2023-05-17T07:50:07.328Z,91115.59
2023-05-17T07:52:34.140Z,91112.97
2023-05-17T07:55:00.905Z,91113.03
2023-05-17T07:57:27.669Z,91116.13
2023-05-17T07:59:54.412Z,91115.44
2023-05-17T08:02:21.023Z,91115.25
2023-05-17T08:04:47.772Z,91110.22
2023-05-17T08:07:14.695Z,91113.19
2023-05-17T08:09:44.244Z,91110.97
2023-05-17T08:12:11.225Z,91113.50
2023-05-17T08:14:39.302Z,91112.03
2023-05-17T08:17:06.107Z,91111.84
2023-05-17T08:19:33.265Z,91108.34
2023-05-17T08:22:00.088Z,91113.38
2023-05-17T08:24:26.705Z,91114.31
2023-05-17T08:26:53.442Z,91112.72
2023-05-17T08:29:20.200Z,91102.22
2023-05-17T08:31:46.878Z,91115.59
2023-05-17T08:34:13.632Z,91104.84
2023-05-17T08:36:40.394Z,91110.31
2023-05-17T08:39:08.601Z,91109.91
2023-05-17T08:41:38.518Z,91107.41
2023-05-17T08:44:06.473Z,91112.88
2023-05-17T08:46:33.617Z,91109.22
2023-05-17T08:49:02.183Z,91107.91
2023-05-17T08:51:29.052Z,91111.94
2023-05-17T08:53:56.207Z,91106.97
2023-05-17T08:56:23.540Z,91103.75
2023-05-17T08:58:57.117Z,91095.63
2023-05-17T09:01:26.423Z,91103.66
2023-05-17T09:03:54.526Z,91101.69
2023-05-17T09:06:21.799Z,91119.94
2023-05-17T09:08:52.917Z,91126.88
2023-05-17T09:11:27.925Z,91125.41
2023-05-17T09:13:57.970Z,91133.72
2023-05-17T09:16:25.139Z,91134.72
2023-05-17T09:18:56.394Z,91136.34
2023-05-17T09:21:23.948Z,91146.25
2023-05-17T09:24:05.594Z,91155.06
2023-05-17T09:26:41.774Z,91154.47
2023-05-17T09:29:09.990Z,91151.38
2023-05-17T09:31:36.740Z,91144.38
2023-05-17T09:34:03.609Z,91163.94
2023-05-17T09:36:30.500Z,91159.28
2023-05-17T09:38:59.360Z,91172.47
2023-05-17T09:41:27.394Z,91163.59
2023-05-17T09:43:56.020Z,91167.47
2023-05-17T09:46:22.660Z,91161.56
2023-05-17T09:48:56.471Z,91163.00
2023-05-17T09:51:33.987Z,91152.78
2023-05-17T09:54:00.852Z,91155.94
2023-05-17T09:56:30.788Z,91145.47
2023-05-17T09:58:59.242Z,91144.34
2023-05-17T10:01:27.047Z,91139.75
2023-05-17T10:03:53.907Z,91130.88
2023-05-17T10:06:38.463Z,91122.44
2023-05-17T10:09:10.534Z,91120.91
2023-05-17T10:11:37.661Z,91121.66
2023-05-17T10:14:18.561Z,91112.41
2023-05-17T10:16:45.400Z,91100.16
2023-05-17T10:19:12.257Z,91103.00
2023-05-17T10:21:39.424Z,91090.03
2023-05-17T10:24:06.418Z,91084.47
2023-05-17T10:26:33.077Z,91074.72
2023-05-17T10:29:01.730Z,91067.75
2023-05-17T10:31:36.557Z,91055.06
2023-05-17T10:34:05.333Z,91058.84
2023-05-17T10:36:32.347Z,91050.25
2023-05-17T10:38:59.289Z,91044.81
2023-05-17T10:41:27.737Z,91046.88
2023-05-17T10:43:54.742Z,91044.81
2023-05-17T10:46:22.411Z,91032.69
2023-05-17T10:48:52.888Z,91031.34
2023-05-17T10:51:36.665Z,91025.00
2023-05-17T10:54:11.024Z,91013.63
2023-05-17T10:56:57.721Z,91009.59
2023-05-17T10:59:28.096Z,91011.25
2023-05-17T11:01:59.525Z,91012.59
2023-05-17T11:04:27.875Z,91003.84
2023-05-17T11:07:15.258Z,91004.16
2023-05-17T11:09:42.303Z,90995.28
2023-05-17T11:12:09.601Z,90991.47
2023-05-17T11:14:45.289Z,90996.81
2023-05-17T11:17:19.710Z,90992.81
2023-05-17T11:20:13.795Z,91007.44
2023-05-17T11:22:51.164Z,91020.03
2023-05-17T11:25:17.925Z,91027.00
2023-05-17T11:27:49.217Z,91022.03
2023-05-17T11:30:26.860Z,91024.63
2023-05-17T11:32:54.847Z,91022.13
2023-05-17T11:35:24.325Z,91027.94
2023-05-17T11:37:54.325Z,91030.22
2023-05-17T11:40:31.217Z,91028.19
2023-05-17T11:43:19.307Z,91026.25
2023-05-17T11:45:48.535Z,91021.25
2023-05-17T11:48:17.154Z,91026.59
2023-05-17T11:50:45.059Z,91025.00
2023-05-17T11:53:11.898Z,91017.13
2023-05-17T11:55:42.492Z,91021.88
2023-05-17T11:58:10.022Z,91029.28
2023-05-17T12:00:38.918Z,91029.28
2023-05-17T12:03:22.019Z,91033.81
2023-05-17T12:05:49.900Z,91033.13
2023-05-17T12:08:18.138Z,91027.59
2023-05-17T12:10:54.034Z,91023.78
2023-05-17T12:13:20.910Z,91010.53
2023-05-17T12:15:57.899Z,91011.16
2023-05-17T12:18:35.539Z,91010.09
2023-05-17T12:21:02.715Z,91006.22
2023-05-17T12:23:31.182Z,91000.72
2023-05-17T12:26:05.308Z,91004.81
2023-05-17T12:28:32.075Z,91005.41
2023-05-17T12:31:01.143Z,91006.63
2023-05-17T12:33:28.009Z,91013.47
2023-05-17T12:35:54.883Z,91009.22
2023-05-17T12:38:21.576Z,91002.50
2023-05-17T12:40:48.267Z,90998.00
2023-05-17T12:43:15.057Z,91002.63
2023-05-17T12:45:42.213Z,91001.81
2023-05-17T12:48:08.980Z,90999.13
2023-05-17T12:50:35.742Z,90999.91
2023-05-17T12:53:08.281Z,90994.00
2023-05-17T12:55:36.902Z,91003.34
2023-05-17T12:58:04.681Z,90989.47
2023-05-17T13:00:31.838Z,90986.19
2023-05-17T13:02:58.675Z,90983.44
2023-05-17T13:05:25.613Z,90997.34
2023-05-17T13:07:53.358Z,91003.47
2023-05-17T13:10:29.619Z,91004.84
2023-05-17T13:12:59.685Z,91003.53
2023-05-17T13:15:30.316Z,91004.75
2023-05-17T13:17:57.274Z,90993.31
2023-05-17T13:20:24.080Z,91003.09
2023-05-17T13:22:51.135Z,90997.72
2023-05-17T13:25:17.911Z,91000.00
2023-05-17T13:27:48.581Z,91001.41
2023-05-17T13:30:16.633Z,90992.34
2023-05-17T13:32:44.364Z,90991.91
2023-05-17T13:35:11.490Z,90990.13
2023-05-17T13:37:38.224Z,90994.97
2023-05-17T13:40:05.498Z,90995.28
2023-05-17T13:42:32.291Z,90986.72
2023-05-17T13:44:58.980Z,90989.38
2023-05-17T13:47:26.196Z,90991.75
2023-05-17T13:49:53.097Z,90997.06
2023-05-17T13:52:19.810Z,90997.16
2023-05-17T13:54:46.985Z,90999.16
2023-05-17T13:57:13.715Z,90999.44
2023-05-17T13:59:40.538Z,91001.47
2023-05-17T14:02:09.184Z,91002.72
2023-05-17T14:04:35.847Z,90999.31
2023-05-17T14:07:03.649Z,90999.59
2023-05-17T14:09:33.977Z,91007.25
2023-05-17T14:12:01.622Z,91013.97
2023-05-17T14:14:28.979Z,91012.34
2023-05-17T14:16:55.932Z,91012.13
2023-05-17T14:19:22.848Z,91011.78
2023-05-17T14:21:50.372Z,91010.22
2023-05-17T14:24:17.037Z,91012.00
2023-05-17T14:26:44.260Z,91018.47
2023-05-17T14:29:11.133Z,91018.09
2023-05-17T14:31:37.861Z,91020.22
2023-05-17T14:34:04.783Z,91031.97
2023-05-17T14:36:31.973Z,91031.16
2023-05-17T14:38:59.363Z,91030.16
2023-05-17T14:41:26.419Z,91027.50
2023-05-17T14:43:53.118Z,91030.09
2023-05-17T14:46:19.842Z,91030.41
2023-05-17T14:48:46.862Z,91024.09
2023-05-17T14:51:13.617Z,91025.09
2023-05-17T14:53:40.511Z,91028.06
2023-05-17T14:56:07.762Z,91028.84
2023-05-17T14:58:34.501Z,91030.81
2023-05-17T15:01:05.447Z,91028.72
2023-05-17T15:03:33.775Z,91034.59
2023-05-17T15:06:02.054Z,91047.56
2023-05-17T15:08:30.085Z,91039.88
2023-05-17T15:10:57.950Z,91042.63
2023-05-17T15:13:25.190Z,91046.28
2023-05-17T15:15:53.082Z,91050.94
2023-05-17T15:18:20.424Z,91066.44
2023-05-17T15:20:47.240Z,91060.34
2023-05-17T15:23:13.948Z,91072.63
2023-05-17T15:25:41.129Z,91069.47
2023-05-17T15:28:07.823Z,91073.66
2023-05-17T15:30:34.442Z,91073.72
2023-05-17T15:33:01.391Z,91070.78
2023-05-17T15:35:29.045Z,91072.06
2023-05-17T15:37:57.973Z,91072.69
2023-05-17T15:40:25.102Z,91068.03
2023-05-17T15:42:52.593Z,91071.31
2023-05-17T15:45:21.484Z,91072.81
2023-05-17T15:47:49.617Z,91065.16
2023-05-17T15:50:16.787Z,91077.22
2023-05-17T15:52:43.651Z,91076.91
2023-05-17T15:55:10.927Z,91076.91
2023-05-17T15:57:37.732Z,91082.50
2023-05-17T16:00:05.108Z,91084.53
2023-05-17T16:02:31.826Z,91071.47
2023-05-17T16:05:00.613Z,91085.56
2023-05-17T16:07:29.380Z,91079.91
2023-05-17T16:09:56.109Z,91082.13
2023-05-17T16:12:22.731Z,91080.25
2023-05-17T16:14:49.472Z,91086.00
2023-05-17T16:17:16.268Z,91083.69
2023-05-17T16:19:43.050Z,91091.63
2023-05-17T16:22:09.780Z,91087.66
2023-05-17T16:24:36.644Z,91090.41
2023-05-17T16:27:05.688Z,91081.22
2023-05-17T16:29:39.782Z,91084.34
2023-05-17T16:32:07.776Z,91090.53
2023-05-17T16:34:34.483Z,91086.16
2023-05-17T16:37:01.285Z,91083.03
2023-05-17T16:39:28.862Z,91076.66
2023-05-17T16:41:55.898Z,91074.50
2023-05-17T16:44:22.542Z,91070.97
2023-05-17T16:46:49.398Z,91072.97
2023-05-17T16:49:16.180Z,91073.09
2023-05-17T16:51:42.918Z,91072.19
2023-05-17T16:54:09.648Z,91068.34
2023-05-17T16:56:36.690Z,91081.31
2023-05-17T16:59:03.544Z,91072.09
2023-05-17T17:01:30.372Z,91075.16
2023-05-17T17:03:57.225Z,91070.78
2023-05-17T17:06:23.983Z,91074.91
2023-05-17T17:08:50.703Z,91066.69
2023-05-17T17:11:18.898Z,91063.06
2023-05-17T17:13:45.680Z,91056.47
2023-05-17T17:16:12.353Z,91058.22
2023-05-17T17:18:39.141Z,91064.56
2023-05-17T17:21:07.852Z,91062.59
2023-05-17T17:23:34.942Z,91058.75
2023-05-17T17:26:01.660Z,91066.38
2023-05-17T17:28:28.711Z,91061.81
2023-05-17T17:30:55.403Z,91055.00
2023-05-17T17:33:22.335Z,91052.00
2023-05-17T17:35:50.439Z,91057.25
2023-05-17T17:38:17.152Z,91064.06
2023-05-17T17:40:43.963Z,91057.13
2023-05-17T17:43:10.692Z,91068.03
2023-05-17T17:45:37.495Z,91075.47
2023-05-17T17:48:04.284Z,91070.84
2023-05-17T17:50:31.573Z,91076.13
2023-05-17T17:52:58.900Z,91081.25
2023-05-17T17:55:25.688Z,91082.06
2023-05-17T17:57:52.422Z,91077.56
2023-05-17T18:00:19.476Z,91075.94
2023-05-17T18:02:46.391Z,91083.59
2023-05-17T18:05:13.135Z,91080.09
2023-05-17T18:07:39.922Z,91084.25
2023-05-17T18:10:07.127Z,91089.91
2023-05-17T18:12:33.922Z,91092.81
2023-05-17T18:15:00.740Z,91086.47
2023-05-17T18:17:28.567Z,91079.69
2023-05-17T18:19:55.303Z,91086.25
2023-05-17T18:22:22.005Z,91085.97
2023-05-17T18:24:49.438Z,91077.41
2023-05-17T18:27:16.856Z,91085.13
2023-05-17T18:29:43.708Z,91085.41
2023-05-17T18:32:10.450Z,91075.81
2023-05-17T18:34:37.498Z,91078.69
2023-05-17T18:37:04.504Z,91074.09
2023-05-17T18:39:31.528Z,91078.75
2023-05-17T18:41:58.234Z,91076.53
2023-05-17T18:44:24.904Z,91081.41
2023-05-17T18:46:51.754Z,91078.59
2023-05-17T18:49:18.584Z,91080.72
2023-05-17T18:51:45.734Z,91077.69
2023-05-17T18:54:12.481Z,91073.72
2023-05-17T18:56:39.274Z,91085.75
2023-05-17T18:59:06.200Z,91076.13
2023-05-17T19:01:32.973Z,91086.00
2023-05-17T19:03:59.937Z,91072.66
2023-05-17T19:06:29.747Z,91086.06
2023-05-17T19:08:58.537Z,91077.44
2023-05-17T19:11:26.480Z,91081.75
2023-05-17T19:13:53.464Z,91081.16
2023-05-17T19:16:20.103Z,91069.31
2023-05-17T19:18:46.789Z,91076.13
2023-05-17T19:21:13.566Z,91073.59
2023-05-17T19:23:40.371Z,91068.66
2023-05-17T19:26:07.085Z,91067.56
2023-05-17T19:28:35.767Z,91069.31
2023-05-17T19:31:03.427Z,91065.47
2023-05-17T19:33:31.996Z,91069.19
2023-05-17T19:35:58.789Z,91066.47
2023-05-17T19:38:25.611Z,91060.53
2023-05-17T19:40:52.376Z,91066.41
2023-05-17T19:43:19.096Z,91065.88
2023-05-17T19:45:45.883Z,91066.63
2023-05-17T19:48:12.544Z,91069.06
2023-05-17T19:50:39.273Z,91067.31
2023-05-17T19:53:06.037Z,91076.13
2023-05-17T19:55:34.401Z,91071.50
2023-05-17T19:58:01.296Z,91074.22
2023-05-17T20:00:28.135Z,91063.75
2023-05-17T20:02:55.070Z,91056.97
2023-05-17T20:05:21.887Z,91064.16
2023-05-17T20:07:48.717Z,91063.56
2023-05-17T20:10:15.419Z,91066.22
2023-05-17T20:12:42.203Z,91067.69
2023-05-17T20:15:09.496Z,91069.50
2023-05-17T20:17:36.242Z,91060.09
2023-05-17T20:20:03.115Z,91070.50
2023-05-17T20:22:29.873Z,91070.63
2023-05-17T20:24:57.928Z,91060.78
2023-05-17T20:27:25.934Z,91063.97
2023-05-17T20:29:52.622Z,91067.31
2023-05-17T20:32:19.241Z,91066.13
2023-05-17T20:34:45.945Z,91067.56
2023-05-17T20:37:12.705Z,91065.50
2023-05-17T20:39:39.471Z,91068.75
2023-05-17T20:42:07.844Z,91070.91
2023-05-17T20:44:34.518Z,91075.78
2023-05-17T20:47:01.426Z,91076.91
2023-05-17T20:49:28.173Z,91071.50
2023-05-17T20:52:01.199Z,91072.00
2023-05-17T20:54:27.853Z,91072.06
2023-05-17T20:56:54.539Z,91065.34
2023-05-17T20:59:23.334Z,91065.66
2023-05-17T21:01:50.905Z,91068.00
2023-05-17T21:04:17.615Z,91065.06
2023-05-17T21:06:44.482Z,91063.50
2023-05-17T21:09:11.229Z,91067.19
2023-05-17T21:11:37.990Z,91066.59
2023-05-17T21:14:04.709Z,91067.56
2023-05-17T21:16:31.400Z,91063.78
2023-05-17T21:18:58.211Z,91067.75
2023-05-17T21:21:24.942Z,91067.44
2023-05-17T21:23:51.742Z,91064.25
2023-05-17T21:26:18.380Z,91064.09
2023-05-17T21:28:45.145Z,91067.13
2023-05-17T21:31:11.996Z,91071.03
2023-05-17T21:33:38.816Z,91075.72
2023-05-17T21:36:05.708Z,91066.75
2023-05-17T21:38:32.461Z,91066.41
2023-05-17T21:40:59.197Z,91055.00
2023-05-17T21:43:26.136Z,91066.13
2023-05-17T21:45:52.851Z,91060.63
2023-05-17T21:48:19.518Z,91069.63
2023-05-17T21:50:46.350Z,91071.28
2023-05-17T21:53:13.842Z,91071.69
2023-05-17T21:55:51.361Z,91069.88
2023-05-17T21:58:27.263Z,91062.50
2023-05-17T22:00:53.999Z,91069.13
2023-05-17T22:03:21.451Z,91066.91
2023-05-17T22:05:48.448Z,91068.97
2023-05-17T22:08:15.119Z,91076.03
2023-05-17T22:10:42.152Z,91071.50
2023-05-17T22:13:12.213Z,91066.06
2023-05-17T22:15:39.191Z,91065.09
2023-05-17T22:18:06.057Z,91065.03
2023-05-17T22:20:32.938Z,91059.22
2023-05-17T22:22:59.797Z,91070.88
2023-05-17T22:25:26.532Z,91069.47
2023-05-17T22:27:53.264Z,91068.78
2023-05-17T22:30:19.901Z,91070.84
2023-05-17T22:32:46.792Z,91062.69
2023-05-17T22:35:13.631Z,91066.78
2023-05-17T22:37:42.880Z,91058.78
2023-05-17T22:40:10.794Z,91060.28
2023-05-17T22:42:37.635Z,91055.22
2023-05-17T22:45:04.687Z,91057.31
2023-05-17T22:47:32.045Z,91061.34
2023-05-17T22:50:00.899Z,91053.06
2023-05-17T22:52:27.647Z,91053.31
2023-05-17T22:54:54.351Z,91055.13
2023-05-17T22:57:21.102Z,91050.31
2023-05-17T22:59:47.805Z,91054.59
2023-05-17T23:02:14.520Z,91052.59
2023-05-17T23:04:41.289Z,91050.31
2023-05-17T23:07:10.109Z,91052.72
2023-05-17T23:09:40.591Z,91049.56
2023-05-17T23:12:08.743Z,91051.13
2023-05-17T23:14:36.377Z,91050.00
2023-05-17T23:17:04.211Z,91052.31
2023-05-17T23:19:31.342Z,91044.91
2023-05-17T23:21:58.237Z,91054.81
2023-05-17T23:24:26.013Z,91047.88
2023-05-17T23:26:52.899Z,91046.78
2023-05-17T23:29:20.102Z,91052.31
2023-05-17T23:31:48.243Z,91049.09
2023-05-17T23:34:15.421Z,91047.88
2023-05-17T23:36:42.167Z,91045.09
2023-05-17T23:39:09.137Z,91044.19
2023-05-17T23:41:37.851Z,91040.16
2023-05-17T23:44:08.060Z,91038.94
2023-05-17T23:46:34.772Z,91040.72
2023-05-17T23:49:02.328Z,91030.34
2023-05-17T23:51:29.231Z,91033.75
2023-05-17T23:53:56.306Z,91033.16
2023-05-17T23:56:23.340Z,91034.59
2023-05-17T23:58:50.230Z,91030.63
